sensor_id;sensor_type;location;lat;lon;timestamp;P1;durP1;ratioP1;P2;durP2;ratioP2
20084;SDS011;10202;48.474;9.138;2024-01-06T00:01:35;10.27;;;6.05;;
20084;SDS011;10202;48.474;9.138;2024-01-06T00:04:05;8.68;;;5.25;;
20084;SDS011;10202;48.474;9.138;2024-01-06T00:06:31;9.20;;;5.25;;
20084;SDS011;10202;48.474;9.138;2024-01-06T00:08:57;9.52;;;4.78;;
20084;SDS011;10202;48.474;9.138;2024-01-06T00:11:25;9.88;;;4.78;;
20084;SDS011;10202;48.474;9.138;2024-01-06T00:13:52;6.88;;;4.10;;
20084;SDS011;10202;48.474;9.138;2024-01-06T00:16:24;12.93;;;4.63;;
20084;SDS011;10202;48.474;9.138;2024-01-06T00:18:52;7.00;;;4.72;;
20084;SDS011;10202;48.474;9.138;2024-01-06T00:21:21;8.60;;;5.00;;
20084;SDS011;10202;48.474;9.138;2024-01-06T00:23:47;16.30;;;5.80;;
20084;SDS011;10202;48.474;9.138;2024-01-06T00:26:15;13.73;;;5.70;;
20084;SDS011;10202;48.474;9.138;2024-01-06T00:28:43;9.20;;;5.10;;
20084;SDS011;10202;48.474;9.138;2024-01-06T00:31:08;10.60;;;4.85;;
20084;SDS011;10202;48.474;9.138;2024-01-06T00:33:34;6.45;;;4.82;;
20084;SDS011;10202;48.474;9.138;2024-01-06T00:36:00;7.63;;;4.30;;
20084;SDS011;10202;48.474;9.138;2024-01-06T00:38:25;6.50;;;4.45;;
20084;SDS011;10202;48.474;9.138;2024-01-06T00:40:53;8.48;;;4.60;;
20084;SDS011;10202;48.474;9.138;2024-01-06T00:43:19;6.18;;;4.00;;
20084;SDS011;10202;48.474;9.138;2024-01-06T00:45:44;6.53;;;3.80;;
20084;SDS011;10202;48.474;9.138;2024-01-06T00:48:15;6.13;;;4.15;;
20084;SDS011;10202;48.474;9.138;2024-01-06T00:50:45;8.35;;;4.47;;
20084;SDS011;10202;48.474;9.138;2024-01-06T00:53:11;6.93;;;4.25;;
20084;SDS011;10202;48.474;9.138;2024-01-06T00:55:37;7.85;;;4.47;;
20084;SDS011;10202;48.474;9.138;2024-01-06T00:58:08;7.95;;;4.07;;
20084;SDS011;10202;48.474;9.138;2024-01-06T01:00:36;10.50;;;4.82;;
20084;SDS011;10202;48.474;9.138;2024-01-06T01:03:04;7.30;;;3.75;;
20084;SDS011;10202;48.474;9.138;2024-01-06T01:05:29;8.10;;;4.15;;
20084;SDS011;10202;48.474;9.138;2024-01-06T01:07:55;10.38;;;4.30;;
20084;SDS011;10202;48.474;9.138;2024-01-06T01:10:20;9.27;;;4.07;;
20084;SDS011;10202;48.474;9.138;2024-01-06T01:12:46;6.03;;;4.00;;
20084;SDS011;10202;48.474;9.138;2024-01-06T01:15:11;5.68;;;4.00;;
20084;SDS011;10202;48.474;9.138;2024-01-06T01:17:37;6.65;;;3.72;;
20084;SDS011;10202;48.474;9.138;2024-01-06T01:20:03;10.48;;;4.57;;
20084;SDS011;10202;48.474;9.138;2024-01-06T01:22:32;7.50;;;4.50;;
20084;SDS011;10202;48.474;9.138;2024-01-06T01:25:00;7.70;;;4.43;;
20084;SDS011;10202;48.474;9.138;2024-01-06T01:27:35;6.60;;;3.80;;
20084;SDS011;10202;48.474;9.138;2024-01-06T01:30:01;10.55;;;4.53;;
20084;SDS011;10202;48.474;9.138;2024-01-06T01:32:26;7.75;;;4.10;;
20084;SDS011;10202;48.474;9.138;2024-01-06T01:34:52;6.68;;;3.90;;
20084;SDS011;10202;48.474;9.138;2024-01-06T01:37:18;6.28;;;3.85;;
20084;SDS011;10202;48.474;9.138;2024-01-06T01:39:45;6.35;;;4.10;;
20084;SDS011;10202;48.474;9.138;2024-01-06T01:42:16;6.75;;;3.83;;
20084;SDS011;10202;48.474;9.138;2024-01-06T01:44:42;4.82;;;3.40;;
20084;SDS011;10202;48.474;9.138;2024-01-06T01:47:07;9.30;;;3.33;;
20084;SDS011;10202;48.474;9.138;2024-01-06T01:49:33;5.80;;;3.20;;
20084;SDS011;10202;48.474;9.138;2024-01-06T01:52:01;7.28;;;2.90;;
20084;SDS011;10202;48.474;9.138;2024-01-06T01:54:29;6.18;;;2.92;;
20084;SDS011;10202;48.474;9.138;2024-01-06T01:56:54;6.10;;;3.05;;
20084;SDS011;10202;48.474;9.138;2024-01-06T01:59:22;8.85;;;3.20;;
20084;SDS011;10202;48.474;9.138;2024-01-06T02:01:48;8.65;;;3.25;;
20084;SDS011;10202;48.474;9.138;2024-01-06T02:04:14;5.18;;;2.78;;
20084;SDS011;10202;48.474;9.138;2024-01-06T02:06:43;7.30;;;3.10;;
20084;SDS011;10202;48.474;9.138;2024-01-06T02:09:09;3.22;;;2.50;;
20084;SDS011;10202;48.474;9.138;2024-01-06T02:11:36;5.35;;;2.40;;
20084;SDS011;10202;48.474;9.138;2024-01-06T02:14:02;4.50;;;2.58;;
20084;SDS011;10202;48.474;9.138;2024-01-06T02:16:30;3.85;;;2.38;;
20084;SDS011;10202;48.474;9.138;2024-01-06T02:18:55;2.45;;;1.80;;
20084;SDS011;10202;48.474;9.138;2024-01-06T02:21:23;3.05;;;2.00;;
20084;SDS011;10202;48.474;9.138;2024-01-06T02:23:51;4.40;;;1.70;;
20084;SDS011;10202;48.474;9.138;2024-01-06T02:26:16;2.60;;;1.98;;
20084;SDS011;10202;48.474;9.138;2024-01-06T02:28:42;2.92;;;1.83;;
20084;SDS011;10202;48.474;9.138;2024-01-06T02:31:12;2.45;;;1.70;;
20084;SDS011;10202;48.474;9.138;2024-01-06T02:33:41;3.17;;;1.73;;
20084;SDS011;10202;48.474;9.138;2024-01-06T02:36:07;6.22;;;1.90;;
20084;SDS011;10202;48.474;9.138;2024-01-06T08:33:48;7.33;;;3.53;;
20084;SDS011;10202;48.474;9.138;2024-01-06T08:36:13;6.73;;;3.60;;
20084;SDS011;10202;48.474;9.138;2024-01-06T08:38:41;6.23;;;3.27;;
20084;SDS011;10202;48.474;9.138;2024-01-06T08:41:09;8.93;;;3.97;;
20084;SDS011;10202;48.474;9.138;2024-01-06T08:43:39;9.47;;;4.07;;
20084;SDS011;10202;48.474;9.138;2024-01-06T08:46:07;5.40;;;3.40;;
20084;SDS011;10202;48.474;9.138;2024-01-06T08:48:32;7.20;;;3.53;;
20084;SDS011;10202;48.474;9.138;2024-01-06T08:51:03;4.70;;;3.10;;
20084;SDS011;10202;48.474;9.138;2024-01-06T08:53:29;7.33;;;3.30;;
20084;SDS011;10202;48.474;9.138;2024-01-06T08:55:57;9.20;;;4.10;;
20084;SDS011;10202;48.474;9.138;2024-01-06T08:58:24;9.90;;;4.00;;
20084;SDS011;10202;48.474;9.138;2024-01-06T09:00:54;7.03;;;2.87;;
20084;SDS011;10202;48.474;9.138;2024-01-06T09:03:20;6.97;;;2.70;;
20084;SDS011;10202;48.474;9.138;2024-01-06T09:05:56;3.67;;;2.17;;
20084;SDS011;10202;48.474;9.138;2024-01-06T09:08:25;5.70;;;2.80;;
20084;SDS011;10202;48.474;9.138;2024-01-06T09:10:50;7.70;;;2.60;;
20084;SDS011;10202;48.474;9.138;2024-01-06T09:13:22;2.95;;;1.92;;
20084;SDS011;10202;48.474;9.138;2024-01-06T09:15:49;3.30;;;1.85;;
20084;SDS011;10202;48.474;9.138;2024-01-06T09:18:20;4.32;;;1.60;;
20084;SDS011;10202;48.474;9.138;2024-01-06T09:20:48;5.28;;;2.20;;
20084;SDS011;10202;48.474;9.138;2024-01-06T09:23:16;5.47;;;2.25;;
20084;SDS011;10202;48.474;9.138;2024-01-06T09:25:42;7.20;;;2.28;;
20084;SDS011;10202;48.474;9.138;2024-01-06T09:28:08;5.43;;;2.42;;
20084;SDS011;10202;48.474;9.138;2024-01-06T09:30:38;5.20;;;2.30;;
20084;SDS011;10202;48.474;9.138;2024-01-06T09:33:04;3.10;;;2.33;;
20084;SDS011;10202;48.474;9.138;2024-01-06T09:35:32;4.05;;;2.45;;
20084;SDS011;10202;48.474;9.138;2024-01-06T09:38:00;4.25;;;2.47;;
20084;SDS011;10202;48.474;9.138;2024-01-06T09:40:31;4.53;;;2.75;;
20084;SDS011;10202;48.474;9.138;2024-01-06T09:43:01;4.25;;;2.53;;
20084;SDS011;10202;48.474;9.138;2024-01-06T09:45:29;4.32;;;2.17;;
20084;SDS011;10202;48.474;9.138;2024-01-06T09:47:59;4.75;;;2.30;;
20084;SDS011;10202;48.474;9.138;2024-01-06T09:50:37;6.97;;;2.50;;
20084;SDS011;10202;48.474;9.138;2024-01-06T09:53:10;3.33;;;2.20;;
20084;SDS011;10202;48.474;9.138;2024-01-06T09:55:39;3.63;;;2.33;;
20084;SDS011;10202;48.474;9.138;2024-01-06T09:58:09;3.13;;;1.80;;
20084;SDS011;10202;48.474;9.138;2024-01-06T10:00:35;9.15;;;1.73;;
20084;SDS011;10202;48.474;9.138;2024-01-06T10:03:03;1.65;;;1.48;;
20084;SDS011;10202;48.474;9.138;2024-01-06T10:05:31;2.10;;;1.48;;
20084;SDS011;10202;48.474;9.138;2024-01-06T10:07:57;3.65;;;1.88;;
20084;SDS011;10202;48.474;9.138;2024-01-06T10:10:22;3.33;;;1.90;;
20084;SDS011;10202;48.474;9.138;2024-01-06T10:12:52;3.42;;;1.90;;
20084;SDS011;10202;48.474;9.138;2024-01-06T10:15:19;4.32;;;2.40;;
20084;SDS011;10202;48.474;9.138;2024-01-06T10:17:50;3.33;;;2.00;;
20084;SDS011;10202;48.474;9.138;2024-01-06T10:20:21;7.32;;;3.53;;
20084;SDS011;10202;48.474;9.138;2024-01-06T10:22:49;2.17;;;1.67;;
20084;SDS011;10202;48.474;9.138;2024-01-06T10:25:19;4.85;;;2.05;;
20084;SDS011;10202;48.474;9.138;2024-01-06T10:27:46;7.22;;;3.08;;
20084;SDS011;10202;48.474;9.138;2024-01-06T10:30:16;3.47;;;1.90;;
20084;SDS011;10202;48.474;9.138;2024-01-06T10:32:45;1.77;;;1.50;;
20084;SDS011;10202;48.474;9.138;2024-01-06T10:35:11;6.40;;;1.80;;
20084;SDS011;10202;48.474;9.138;2024-01-06T10:37:41;2.20;;;1.25;;
20084;SDS011;10202;48.474;9.138;2024-01-06T10:40:13;2.00;;;1.40;;
20084;SDS011;10202;48.474;9.138;2024-01-06T10:42:43;3.05;;;1.40;;
20084;SDS011;10202;48.474;9.138;2024-01-06T10:45:13;2.97;;;1.60;;
20084;SDS011;10202;48.474;9.138;2024-01-06T10:47:44;2.55;;;1.48;;
20084;SDS011;10202;48.474;9.138;2024-01-06T10:50:12;2.65;;;1.30;;
20084;SDS011;10202;48.474;9.138;2024-01-06T10:52:40;3.53;;;1.42;;
20084;SDS011;10202;48.474;9.138;2024-01-06T10:55:06;3.58;;;1.42;;
20084;SDS011;10202;48.474;9.138;2024-01-06T10:57:32;1.50;;;1.40;;
20084;SDS011;10202;48.474;9.138;2024-01-06T11:00:02;2.35;;;1.63;;
20084;SDS011;10202;48.474;9.138;2024-01-06T11:02:31;2.58;;;1.13;;
20084;SDS011;10202;48.474;9.138;2024-01-06T11:04:59;2.05;;;1.40;;
20084;SDS011;10202;48.474;9.138;2024-01-06T11:07:29;2.05;;;1.60;;
20084;SDS011;10202;48.474;9.138;2024-01-06T11:12:43;1.30;;;1.20;;
20084;SDS011;10202;48.474;9.138;2024-01-06T11:15:34;4.10;;;1.90;;
20084;SDS011;10202;48.474;9.138;2024-01-06T11:18:07;2.78;;;1.83;;
20084;SDS011;10202;48.474;9.138;2024-01-06T11:20:32;7.78;;;3.25;;
20084;SDS011;10202;48.474;9.138;2024-01-06T11:23:17;5.63;;;4.35;;
20084;SDS011;10202;48.474;9.138;2024-01-06T11:25:47;2.05;;;1.85;;
20084;SDS011;10202;48.474;9.138;2024-01-06T11:28:16;3.78;;;2.15;;
20084;SDS011;10202;48.474;9.138;2024-01-06T11:30:44;12.07;;;6.65;;
20084;SDS011;10202;48.474;9.138;2024-01-06T11:33:09;2.15;;;1.77;;
20084;SDS011;10202;48.474;9.138;2024-01-06T11:35:36;2.90;;;1.90;;
20084;SDS011;10202;48.474;9.138;2024-01-06T11:38:07;2.83;;;1.50;;
20084;SDS011;10202;48.474;9.138;2024-01-06T11:40:39;1.75;;;1.42;;
20084;SDS011;10202;48.474;9.138;2024-01-06T11:43:09;2.15;;;1.95;;
20084;SDS011;10202;48.474;9.138;2024-01-06T11:45:42;2.20;;;1.40;;
20084;SDS011;10202;48.474;9.138;2024-01-06T11:48:08;2.35;;;1.63;;
20084;SDS011;10202;48.474;9.138;2024-01-06T11:50:40;2.28;;;1.70;;
20084;SDS011;10202;48.474;9.138;2024-01-06T11:53:07;4.20;;;1.50;;
20084;SDS011;10202;48.474;9.138;2024-01-06T11:55:37;3.13;;;1.70;;
20084;SDS011;10202;48.474;9.138;2024-01-06T11:58:07;4.15;;;1.58;;
20084;SDS011;10202;48.474;9.138;2024-01-06T12:00:35;3.75;;;1.98;;
20084;SDS011;10202;48.474;9.138;2024-01-06T12:03:06;5.07;;;1.95;;
20084;SDS011;10202;48.474;9.138;2024-01-06T12:05:31;6.05;;;1.60;;
20084;SDS011;10202;48.474;9.138;2024-01-06T12:07:57;2.40;;;1.50;;
20084;SDS011;10202;48.474;9.138;2024-01-06T12:10:26;4.35;;;1.60;;
20084;SDS011;10202;48.474;9.138;2024-01-06T12:13:00;3.35;;;1.70;;
20084;SDS011;10202;48.474;9.138;2024-01-06T12:15:33;3.50;;;1.80;;
20084;SDS011;10202;48.474;9.138;2024-01-06T12:18:05;2.70;;;1.95;;
20084;SDS011;10202;48.474;9.138;2024-01-06T12:20:31;1.90;;;1.70;;
20084;SDS011;10202;48.474;9.138;2024-01-06T12:22:57;3.35;;;1.70;;
20084;SDS011;10202;48.474;9.138;2024-01-06T12:25:26;2.13;;;1.60;;
20084;SDS011;10202;48.474;9.138;2024-01-06T12:27:53;3.08;;;1.70;;
20084;SDS011;10202;48.474;9.138;2024-01-06T12:30:22;4.32;;;1.77;;
20084;SDS011;10202;48.474;9.138;2024-01-06T12:32:49;2.75;;;1.80;;
20084;SDS011;10202;48.474;9.138;2024-01-06T12:35:20;3.53;;;2.03;;
20084;SDS011;10202;48.474;9.138;2024-01-06T12:37:47;3.22;;;2.15;;
20084;SDS011;10202;48.474;9.138;2024-01-06T12:40:13;7.38;;;3.08;;
20084;SDS011;10202;48.474;9.138;2024-01-06T12:42:44;6.47;;;2.30;;
20084;SDS011;10202;48.474;9.138;2024-01-06T12:45:10;3.53;;;1.83;;
20084;SDS011;10202;48.474;9.138;2024-01-06T12:47:40;4.00;;;1.70;;
20084;SDS011;10202;48.474;9.138;2024-01-06T12:50:10;2.63;;;1.80;;
20084;SDS011;10202;48.474;9.138;2024-01-06T12:52:36;4.43;;;1.80;;
20084;SDS011;10202;48.474;9.138;2024-01-06T12:55:03;4.25;;;1.90;;
20084;SDS011;10202;48.474;9.138;2024-01-06T12:57:29;2.47;;;1.15;;
20084;SDS011;10202;48.474;9.138;2024-01-06T12:59:55;1.20;;;1.10;;
20084;SDS011;10202;48.474;9.138;2024-01-06T13:02:20;1.30;;;1.15;;
20084;SDS011;10202;48.474;9.138;2024-01-06T13:04:46;5.95;;;2.42;;
20084;SDS011;10202;48.474;9.138;2024-01-06T13:07:14;4.13;;;2.47;;
20084;SDS011;10202;48.474;9.138;2024-01-06T13:09:43;3.25;;;1.98;;
20084;SDS011;10202;48.474;9.138;2024-01-06T13:12:13;1.40;;;1.30;;
20084;SDS011;10202;48.474;9.138;2024-01-06T13:14:43;3.20;;;1.70;;
20084;SDS011;10202;48.474;9.138;2024-01-06T13:17:14;1.48;;;1.30;;
20084;SDS011;10202;48.474;9.138;2024-01-06T13:19:40;3.10;;;1.60;;
20084;SDS011;10202;48.474;9.138;2024-01-06T13:22:08;1.95;;;1.15;;
20084;SDS011;10202;48.474;9.138;2024-01-06T13:24:35;2.05;;;1.10;;
20084;SDS011;10202;48.474;9.138;2024-01-06T13:27:05;2.45;;;1.40;;
20084;SDS011;10202;48.474;9.138;2024-01-06T13:29:34;0.93;;;0.93;;
20084;SDS011;10202;48.474;9.138;2024-01-06T13:32:04;1.48;;;1.10;;
20084;SDS011;10202;48.474;9.138;2024-01-06T13:34:30;1.05;;;0.95;;
20084;SDS011;10202;48.474;9.138;2024-01-06T13:36:56;1.30;;;1.20;;
20084;SDS011;10202;48.474;9.138;2024-01-06T13:39:24;1.00;;;0.90;;
20084;SDS011;10202;48.474;9.138;2024-01-06T13:41:52;2.08;;;0.98;;
20084;SDS011;10202;48.474;9.138;2024-01-06T13:44:17;1.50;;;1.05;;
20084;SDS011;10202;48.474;9.138;2024-01-06T13:46:48;2.60;;;1.17;;
20084;SDS011;10202;48.474;9.138;2024-01-06T13:49:16;1.33;;;1.20;;
20084;SDS011;10202;48.474;9.138;2024-01-06T13:51:45;1.10;;;1.00;;
20084;SDS011;10202;48.474;9.138;2024-01-06T13:54:12;0.80;;;0.80;;
20084;SDS011;10202;48.474;9.138;2024-01-06T13:56:42;1.00;;;1.00;;
20084;SDS011;10202;48.474;9.138;2024-01-06T13:59:10;1.08;;;1.00;;
20084;SDS011;10202;48.474;9.138;2024-01-06T14:01:36;2.35;;;0.98;;
20084;SDS011;10202;48.474;9.138;2024-01-06T14:04:01;1.17;;;1.10;;
20084;SDS011;10202;48.474;9.138;2024-01-06T14:06:30;1.45;;;1.20;;
20084;SDS011;10202;48.474;9.138;2024-01-06T14:08:59;1.33;;;1.10;;
20084;SDS011;10202;48.474;9.138;2024-01-06T14:11:25;1.23;;;1.02;;
20084;SDS011;10202;48.474;9.138;2024-01-06T14:13:54;0.88;;;0.88;;
20084;SDS011;10202;48.474;9.138;2024-01-06T14:16:22;0.80;;;0.73;;
20084;SDS011;10202;48.474;9.138;2024-01-06T14:18:52;2.00;;;1.27;;
20084;SDS011;10202;48.474;9.138;2024-01-06T14:21:20;1.20;;;1.10;;
20084;SDS011;10202;48.474;9.138;2024-01-06T14:23:46;0.88;;;0.88;;
20084;SDS011;10202;48.474;9.138;2024-01-06T14:26:20;1.00;;;0.90;;
20084;SDS011;10202;48.474;9.138;2024-01-06T14:28:46;1.50;;;1.30;;
20084;SDS011;10202;48.474;9.138;2024-01-06T14:31:12;1.38;;;1.27;;
20084;SDS011;10202;48.474;9.138;2024-01-06T14:33:40;1.40;;;1.27;;
20084;SDS011;10202;48.474;9.138;2024-01-06T14:36:08;1.45;;;1.33;;
20084;SDS011;10202;48.474;9.138;2024-01-06T14:38:36;1.52;;;1.20;;
20084;SDS011;10202;48.474;9.138;2024-01-06T14:41:03;2.25;;;1.75;;
20084;SDS011;10202;48.474;9.138;2024-01-06T14:43:28;1.35;;;1.25;;
20084;SDS011;10202;48.474;9.138;2024-01-06T14:45:56;2.08;;;1.33;;
20084;SDS011;10202;48.474;9.138;2024-01-06T14:48:22;3.10;;;2.10;;
20084;SDS011;10202;48.474;9.138;2024-01-06T14:50:47;3.08;;;1.75;;
20084;SDS011;10202;48.474;9.138;2024-01-06T14:53:16;2.95;;;2.05;;
20084;SDS011;10202;48.474;9.138;2024-01-06T14:55:44;1.58;;;1.35;;
20084;SDS011;10202;48.474;9.138;2024-01-06T14:58:09;1.80;;;1.52;;
20084;SDS011;10202;48.474;9.138;2024-01-06T15:00:37;4.18;;;2.17;;
20084;SDS011;10202;48.474;9.138;2024-01-06T15:03:05;2.22;;;1.40;;
20084;SDS011;10202;48.474;9.138;2024-01-06T15:05:31;1.30;;;1.20;;
20084;SDS011;10202;48.474;9.138;2024-01-06T15:07:56;1.45;;;1.30;;
20084;SDS011;10202;48.474;9.138;2024-01-06T15:10:24;2.05;;;1.60;;
20084;SDS011;10202;48.474;9.138;2024-01-06T15:12:55;11.30;;;5.93;;
20084;SDS011;10202;48.474;9.138;2024-01-06T15:15:25;3.90;;;2.30;;
20084;SDS011;10202;48.474;9.138;2024-01-06T15:17:58;6.80;;;4.70;;
20084;SDS011;10202;48.474;9.138;2024-01-06T15:20:30;6.20;;;3.20;;
20084;SDS011;10202;48.474;9.138;2024-01-06T15:22:56;11.13;;;6.00;;
20084;SDS011;10202;48.474;9.138;2024-01-06T15:25:22;5.15;;;3.08;;
20084;SDS011;10202;48.474;9.138;2024-01-06T15:27:47;10.23;;;5.50;;
20084;SDS011;10202;48.474;9.138;2024-01-06T15:30:13;12.20;;;5.10;;
20084;SDS011;10202;48.474;9.138;2024-01-06T15:32:41;16.75;;;7.65;;
20084;SDS011;10202;48.474;9.138;2024-01-06T15:35:08;21.27;;;9.85;;
20084;SDS011;10202;48.474;9.138;2024-01-06T15:37:39;9.77;;;6.35;;
20084;SDS011;10202;48.474;9.138;2024-01-06T15:40:07;5.13;;;3.38;;
20084;SDS011;10202;48.474;9.138;2024-01-06T15:42:38;5.47;;;3.55;;
20084;SDS011;10202;48.474;9.138;2024-01-06T15:45:06;10.90;;;6.03;;
20084;SDS011;10202;48.474;9.138;2024-01-06T15:47:32;16.67;;;8.38;;
20084;SDS011;10202;48.474;9.138;2024-01-06T15:50:02;11.68;;;6.07;;
20084;SDS011;10202;48.474;9.138;2024-01-06T15:52:32;10.10;;;5.78;;
20084;SDS011;10202;48.474;9.138;2024-01-06T15:54:59;5.93;;;2.90;;
20084;SDS011;10202;48.474;9.138;2024-01-06T15:57:25;2.67;;;2.00;;
20084;SDS011;10202;48.474;9.138;2024-01-06T15:59:55;6.40;;;3.10;;
20084;SDS011;10202;48.474;9.138;2024-01-06T16:02:24;4.03;;;3.05;;
20084;SDS011;10202;48.474;9.138;2024-01-06T16:04:55;3.45;;;2.60;;
20084;SDS011;10202;48.474;9.138;2024-01-06T16:07:24;4.38;;;3.25;;
20084;SDS011;10202;48.474;9.138;2024-01-06T16:09:52;2.70;;;2.47;;
20084;SDS011;10202;48.474;9.138;2024-01-06T16:12:17;2.53;;;2.22;;
20084;SDS011;10202;48.474;9.138;2024-01-06T16:14:43;4.22;;;2.30;;
20084;SDS011;10202;48.474;9.138;2024-01-06T16:17:08;4.43;;;2.50;;
20084;SDS011;10202;48.474;9.138;2024-01-06T16:19:34;4.57;;;3.22;;
20084;SDS011;10202;48.474;9.138;2024-01-06T16:22:02;4.85;;;3.45;;
20084;SDS011;10202;48.474;9.138;2024-01-06T16:24:30;4.97;;;2.80;;
20084;SDS011;10202;48.474;9.138;2024-01-06T16:27:00;3.83;;;2.85;;
20084;SDS011;10202;48.474;9.138;2024-01-06T16:29:28;3.20;;;2.75;;
20084;SDS011;10202;48.474;9.138;2024-01-06T16:31:56;5.07;;;3.30;;
20084;SDS011;10202;48.474;9.138;2024-01-06T16:34:22;3.78;;;3.00;;
20084;SDS011;10202;48.474;9.138;2024-01-06T16:36:50;3.08;;;2.55;;
20084;SDS011;10202;48.474;9.138;2024-01-06T16:39:15;3.75;;;2.78;;
20084;SDS011;10202;48.474;9.138;2024-01-06T16:41:45;3.97;;;3.28;;
20084;SDS011;10202;48.474;9.138;2024-01-06T16:44:13;5.18;;;3.72;;
20084;SDS011;10202;48.474;9.138;2024-01-06T16:46:41;7.15;;;4.90;;
20084;SDS011;10202;48.474;9.138;2024-01-06T16:49:08;4.28;;;3.65;;
20084;SDS011;10202;48.474;9.138;2024-01-06T16:51:35;6.78;;;3.55;;
20084;SDS011;10202;48.474;9.138;2024-01-06T16:54:02;7.18;;;5.43;;
20084;SDS011;10202;48.474;9.138;2024-01-06T16:56:33;7.88;;;5.70;;
20084;SDS011;10202;48.474;9.138;2024-01-06T16:59:01;7.68;;;4.10;;
20084;SDS011;10202;48.474;9.138;2024-01-06T17:01:29;10.63;;;6.90;;
20084;SDS011;10202;48.474;9.138;2024-01-06T17:03:56;11.70;;;7.47;;
20084;SDS011;10202;48.474;9.138;2024-01-06T17:06:24;6.90;;;4.70;;
20084;SDS011;10202;48.474;9.138;2024-01-06T17:08:50;6.93;;;4.03;;
20084;SDS011;10202;48.474;9.138;2024-01-06T17:11:16;20.38;;;15.85;;
20084;SDS011;10202;48.474;9.138;2024-01-06T17:13:44;13.10;;;10.60;;
20084;SDS011;10202;48.474;9.138;2024-01-06T17:16:11;6.25;;;4.70;;
20084;SDS011;10202;48.474;9.138;2024-01-06T17:18:37;8.98;;;6.03;;
20084;SDS011;10202;48.474;9.138;2024-01-06T17:21:03;8.30;;;4.60;;
20084;SDS011;10202;48.474;9.138;2024-01-06T17:23:31;13.05;;;6.47;;
20084;SDS011;10202;48.474;9.138;2024-01-06T17:26:01;10.68;;;5.97;;
20084;SDS011;10202;48.474;9.138;2024-01-06T17:28:28;7.45;;;5.03;;
20084;SDS011;10202;48.474;9.138;2024-01-06T17:30:54;6.72;;;4.75;;
20084;SDS011;10202;48.474;9.138;2024-01-06T17:33:24;5.60;;;4.05;;
20084;SDS011;10202;48.474;9.138;2024-01-06T17:35:54;6.13;;;3.90;;
20084;SDS011;10202;48.474;9.138;2024-01-06T17:38:20;4.05;;;3.20;;
20084;SDS011;10202;48.474;9.138;2024-01-06T17:40:46;8.43;;;5.93;;
20084;SDS011;10202;48.474;9.138;2024-01-06T17:43:14;9.50;;;6.45;;
20084;SDS011;10202;48.474;9.138;2024-01-06T17:45:42;9.48;;;6.32;;
20084;SDS011;10202;48.474;9.138;2024-01-06T17:48:10;7.63;;;5.40;;
20084;SDS011;10202;48.474;9.138;2024-01-06T17:50:36;9.50;;;6.28;;
20084;SDS011;10202;48.474;9.138;2024-01-06T17:53:04;10.85;;;5.40;;
20084;SDS011;10202;48.474;9.138;2024-01-06T17:55:33;10.57;;;6.40;;
20084;SDS011;10202;48.474;9.138;2024-01-06T17:58:05;11.35;;;5.43;;
20084;SDS011;10202;48.474;9.138;2024-01-06T18:00:33;12.18;;;6.88;;
20084;SDS011;10202;48.474;9.138;2024-01-06T18:02:59;21.25;;;8.65;;
20084;SDS011;10202;48.474;9.138;2024-01-06T18:05:24;14.73;;;6.65;;
20084;SDS011;10202;48.474;9.138;2024-01-06T18:07:50;11.63;;;6.65;;
20084;SDS011;10202;48.474;9.138;2024-01-06T18:10:18;13.25;;;8.32;;
20084;SDS011;10202;48.474;9.138;2024-01-06T18:12:44;10.02;;;6.82;;
20084;SDS011;10202;48.474;9.138;2024-01-06T18:15:09;16.50;;;9.13;;
20084;SDS011;10202;48.474;9.138;2024-01-06T18:17:37;9.93;;;6.53;;
20084;SDS011;10202;48.474;9.138;2024-01-06T18:20:04;12.55;;;7.10;;
20084;SDS011;10202;48.474;9.138;2024-01-06T18:22:31;10.45;;;6.82;;
20084;SDS011;10202;48.474;9.138;2024-01-06T18:24:57;9.73;;;5.63;;
20084;SDS011;10202;48.474;9.138;2024-01-06T18:27:22;13.95;;;7.75;;
20084;SDS011;10202;48.474;9.138;2024-01-06T18:29:51;9.70;;;6.07;;
20084;SDS011;10202;48.474;9.138;2024-01-06T18:32:21;12.93;;;7.45;;
20084;SDS011;10202;48.474;9.138;2024-01-06T18:34:49;10.43;;;6.57;;
20084;SDS011;10202;48.474;9.138;2024-01-06T18:37:14;22.77;;;10.40;;
20084;SDS011;10202;48.474;9.138;2024-01-06T18:39:40;12.43;;;7.57;;
20084;SDS011;10202;48.474;9.138;2024-01-06T18:42:09;14.25;;;7.30;;
20084;SDS011;10202;48.474;9.138;2024-01-06T18:44:36;24.35;;;12.32;;
20084;SDS011;10202;48.474;9.138;2024-01-06T18:47:02;20.52;;;10.77;;
20084;SDS011;10202;48.474;9.138;2024-01-06T18:49:33;18.77;;;10.02;;
20084;SDS011;10202;48.474;9.138;2024-01-06T18:52:03;17.20;;;8.80;;
20084;SDS011;10202;48.474;9.138;2024-01-06T18:54:29;22.95;;;10.85;;
20084;SDS011;10202;48.474;9.138;2024-01-06T18:56:54;18.58;;;9.40;;
20084;SDS011;10202;48.474;9.138;2024-01-06T18:59:22;16.40;;;8.52;;
20084;SDS011;10202;48.474;9.138;2024-01-06T19:01:52;16.02;;;7.72;;
20084;SDS011;10202;48.474;9.138;2024-01-06T19:04:23;20.23;;;9.25;;
20084;SDS011;10202;48.474;9.138;2024-01-06T19:06:50;13.45;;;7.38;;
20084;SDS011;10202;48.474;9.138;2024-01-06T19:09:18;9.30;;;6.22;;
20084;SDS011;10202;48.474;9.138;2024-01-06T19:11:44;11.43;;;6.68;;
20084;SDS011;10202;48.474;9.138;2024-01-06T19:14:10;18.50;;;9.07;;
20084;SDS011;10202;48.474;9.138;2024-01-06T19:16:35;18.48;;;7.85;;
20084;SDS011;10202;48.474;9.138;2024-01-06T19:19:07;16.42;;;9.45;;
20084;SDS011;10202;48.474;9.138;2024-01-06T19:21:33;26.38;;;10.85;;
20084;SDS011;10202;48.474;9.138;2024-01-06T19:23:59;21.58;;;10.23;;
20084;SDS011;10202;48.474;9.138;2024-01-06T19:26:24;19.08;;;9.40;;
20084;SDS011;10202;48.474;9.138;2024-01-06T19:28:52;24.80;;;10.40;;
20084;SDS011;10202;48.474;9.138;2024-01-06T19:31:20;12.80;;;7.47;;
20084;SDS011;10202;48.474;9.138;2024-01-06T19:33:49;17.27;;;9.35;;
20084;SDS011;10202;48.474;9.138;2024-01-06T19:36:17;19.35;;;10.02;;
20084;SDS011;10202;48.474;9.138;2024-01-06T19:38:43;18.20;;;10.25;;
20084;SDS011;10202;48.474;9.138;2024-01-06T19:41:11;20.15;;;10.57;;
20084;SDS011;10202;48.474;9.138;2024-01-06T19:43:36;16.20;;;8.55;;
20084;SDS011;10202;48.474;9.138;2024-01-06T19:46:07;15.55;;;9.13;;
20084;SDS011;10202;48.474;9.138;2024-01-06T19:48:38;10.82;;;6.63;;
20084;SDS011;10202;48.474;9.138;2024-01-06T19:51:04;17.05;;;7.50;;
20084;SDS011;10202;48.474;9.138;2024-01-06T19:53:30;16.88;;;8.80;;
20084;SDS011;10202;48.474;9.138;2024-01-06T19:55:59;16.88;;;8.25;;
20084;SDS011;10202;48.474;9.138;2024-01-06T19:58:30;17.23;;;9.80;;
20084;SDS011;10202;48.474;9.138;2024-01-06T20:01:00;12.70;;;7.70;;
20084;SDS011;10202;48.474;9.138;2024-01-06T20:03:28;11.48;;;6.75;;
20084;SDS011;10202;48.474;9.138;2024-01-06T20:05:56;11.85;;;7.38;;
20084;SDS011;10202;48.474;9.138;2024-01-06T20:08:24;16.95;;;8.30;;
20084;SDS011;10202;48.474;9.138;2024-01-06T20:10:49;21.90;;;9.32;;
20084;SDS011;10202;48.474;9.138;2024-01-06T20:13:15;12.73;;;7.38;;
20084;SDS011;10202;48.474;9.138;2024-01-06T20:15:42;12.48;;;7.35;;
20084;SDS011;10202;48.474;9.138;2024-01-06T20:18:13;13.18;;;7.75;;
20084;SDS011;10202;48.474;9.138;2024-01-06T20:20:41;19.20;;;10.07;;
20084;SDS011;10202;48.474;9.138;2024-01-06T20:23:09;27.52;;;13.15;;
20084;SDS011;10202;48.474;9.138;2024-01-06T20:25:35;29.33;;;14.52;;
20084;SDS011;10202;48.474;9.138;2024-01-06T20:28:02;21.05;;;11.13;;
20084;SDS011;10202;48.474;9.138;2024-01-06T20:30:28;18.05;;;10.00;;
20084;SDS011;10202;48.474;9.138;2024-01-06T20:32:53;20.20;;;11.93;;
20084;SDS011;10202;48.474;9.138;2024-01-06T20:35:19;18.05;;;9.60;;
20084;SDS011;10202;48.474;9.138;2024-01-06T20:37:45;16.20;;;8.55;;
20084;SDS011;10202;48.474;9.138;2024-01-06T20:40:14;16.63;;;9.60;;
20084;SDS011;10202;48.474;9.138;2024-01-06T20:42:39;17.00;;;9.77;;
20084;SDS011;10202;48.474;9.138;2024-01-06T20:45:05;13.23;;;8.18;;